createdAt,value
2022-10-15T00:00:39.972Z,54.50
2022-10-15T00:03:06.870Z,53.13
2022-10-15T00:05:36.434Z,53.75
2022-10-15T00:08:03.301Z,50.08
2022-10-15T00:10:30.058Z,51.47
2022-10-15T00:12:57.104Z,53.63
2022-10-15T00:15:23.895Z,50.33
2022-10-15T00:17:50.623Z,50.97
2022-10-15T00:20:17.587Z,49.40
2022-10-15T00:22:44.541Z,49.20
2022-10-15T00:25:11.334Z,49.35
2022-10-15T00:27:38.416Z,48.22
2022-10-15T00:30:06.735Z,49.25
2022-10-15T00:32:33.541Z,49.90
2022-10-15T00:35:00.203Z,50.63
2022-10-15T00:37:26.874Z,50.28
2022-10-15T00:39:53.634Z,48.60
2022-10-15T00:42:20.780Z,49.05
2022-10-15T00:44:53.490Z,51.53
2022-10-15T00:47:40.269Z,50.33
2022-10-15T00:50:10.979Z,52.33
2022-10-15T00:52:40.923Z,51.30
2022-10-15T00:55:17.465Z,49.20
2022-10-15T00:57:46.070Z,48.78
2022-10-15T01:00:17.516Z,49.28
2022-10-15T01:02:45.727Z,47.50
2022-10-15T01:05:14.931Z,47.20
2022-10-15T01:07:41.641Z,46.65
2022-10-15T01:10:10.085Z,48.50
2022-10-15T01:12:55.727Z,48.67
2022-10-15T01:15:27.283Z,48.67
2022-10-15T01:18:14.280Z,46.25
2022-10-15T01:20:54.023Z,46.03
2022-10-15T01:23:54.549Z,47.53
2022-10-15T01:26:42.341Z,46.30
2022-10-15T01:29:47.904Z,47.95
2022-10-15T01:32:23.852Z,47.45
2022-10-15T01:35:18.199Z,46.92
2022-10-15T01:37:52.967Z,46.63
2022-10-15T01:40:30.320Z,45.23
2022-10-15T01:43:00.123Z,46.95
2022-10-15T01:45:45.994Z,47.33
2022-10-15T01:48:13.239Z,45.55
2022-10-15T01:50:47.422Z,46.08
2022-10-15T01:53:26.639Z,45.92
2022-10-15T01:56:07.722Z,47.08
2022-10-15T01:58:38.096Z,46.47
2022-10-15T02:01:05.731Z,45.50
2022-10-15T02:03:32.546Z,47.03
2022-10-15T02:06:09.807Z,45.78
2022-10-15T02:08:44.417Z,42.75
2022-10-15T02:11:15.283Z,46.38
2022-10-15T02:13:59.272Z,45.33
2022-10-15T02:16:40.249Z,44.03
2022-10-15T02:19:22.594Z,42.70
2022-10-15T02:21:57.600Z,43.83
2022-10-15T02:24:27.372Z,44.40
2022-10-15T02:26:57.650Z,44.72
2022-10-15T02:29:28.615Z,46.58
2022-10-15T02:31:57.952Z,45.45
2022-10-15T02:34:30.305Z,44.05
2022-10-15T02:37:03.282Z,45.60
2022-10-15T02:39:30.265Z,45.85
2022-10-15T02:41:57.781Z,44.53
2022-10-15T02:44:24.461Z,45.78
2022-10-15T02:46:51.251Z,46.65
2022-10-15T02:49:18.075Z,46.05
2022-10-15T02:51:44.814Z,46.25
2022-10-15T02:54:11.810Z,44.97
2022-10-15T02:56:39.513Z,47.53
2022-10-15T02:59:06.994Z,46.47
2022-10-15T03:01:34.257Z,45.42
2022-10-15T03:04:01.754Z,46.40
2022-10-15T03:06:28.711Z,46.80
2022-10-15T03:08:55.498Z,45.03
2022-10-15T03:11:22.460Z,46.58
2022-10-15T03:13:49.084Z,43.67
2022-10-15T03:16:15.717Z,45.63
2022-10-15T03:18:42.391Z,46.75
2022-10-15T03:21:09.618Z,46.88
2022-10-15T03:23:36.454Z,45.85
2022-10-15T03:26:03.211Z,46.00
2022-10-15T03:28:30.089Z,47.47
2022-10-15T03:30:56.898Z,47.38
2022-10-15T03:33:25.167Z,45.63
2022-10-15T03:35:52.704Z,46.08
2022-10-15T03:38:19.762Z,47.90
2022-10-15T03:40:47.059Z,46.20
2022-10-15T03:43:13.916Z,46.78
2022-10-15T03:45:40.867Z,47.55
2022-10-15T03:48:07.570Z,48.47
2022-10-15T03:50:34.812Z,45.85
2022-10-15T03:53:05.725Z,47.25
2022-10-15T03:55:33.131Z,46.00
2022-10-15T03:58:00.097Z,47.00
2022-10-15T04:00:26.833Z,48.28
2022-10-15T04:02:53.635Z,46.33
2022-10-15T04:05:20.346Z,48.38
2022-10-15T04:07:47.049Z,46.03
2022-10-15T04:10:14.156Z,46.08
2022-10-15T04:12:40.829Z,47.88
2022-10-15T04:15:07.888Z,46.90
2022-10-15T04:17:34.531Z,46.38
2022-10-15T04:20:01.345Z,45.72
2022-10-15T04:22:28.055Z,46.65
2022-10-15T04:24:55.081Z,45.38
2022-10-15T04:27:21.842Z,45.65
2022-10-15T04:29:49.301Z,45.42
2022-10-15T04:32:16.981Z,45.53
2022-10-15T04:34:45.593Z,45.08
2022-10-15T04:37:12.312Z,45.58
2022-10-15T04:39:39.322Z,45.65
2022-10-15T04:42:06.065Z,45.28
2022-10-15T04:44:32.920Z,44.97
2022-10-15T04:47:00.666Z,46.28
2022-10-15T04:49:27.285Z,44.35
2022-10-15T04:51:54.075Z,46.17
2022-10-15T04:54:20.970Z,46.72
2022-10-15T04:56:47.928Z,47.17
2022-10-15T04:59:14.598Z,44.95
2022-10-15T05:01:41.326Z,46.85
2022-10-15T05:04:11.821Z,48.95
2022-10-15T05:06:38.462Z,47.25
2022-10-15T05:09:05.159Z,46.83
2022-10-15T05:11:31.816Z,46.25
2022-10-15T05:13:58.618Z,44.50
2022-10-15T05:16:28.454Z,47.10
2022-10-15T05:19:04.068Z,47.47
2022-10-15T05:21:31.651Z,47.38
2022-10-15T05:23:59.544Z,45.88
2022-10-15T05:26:28.193Z,48.03
2022-10-15T05:28:58.101Z,46.03
2022-10-15T05:31:27.503Z,47.25
2022-10-15T05:33:54.617Z,47.58
2022-10-15T05:36:29.637Z,49.47
2022-10-15T05:39:01.892Z,47.85
2022-10-15T05:41:29.601Z,49.03
2022-10-15T05:43:58.518Z,47.78
2022-10-15T05:46:25.855Z,51.17
2022-10-15T05:48:57.395Z,49.63
2022-10-15T05:51:25.819Z,49.10
2022-10-15T05:53:53.857Z,49.50
2022-10-15T05:56:21.707Z,49.63
2022-10-15T05:58:49.004Z,48.60
2022-10-15T06:01:16.079Z,50.67
2022-10-15T06:03:43.333Z,50.25
2022-10-15T06:06:20.022Z,49.53
2022-10-15T06:08:47.965Z,49.83
2022-10-15T06:11:15.200Z,51.17
2022-10-15T06:13:43.272Z,51.03
2022-10-15T06:16:11.180Z,49.60
2022-10-15T06:18:38.912Z,49.35
2022-10-15T06:21:07.694Z,50.40
2022-10-15T06:23:34.768Z,52.28
2022-10-15T06:26:06.923Z,52.08
2022-10-15T06:28:34.627Z,53.50
2022-10-15T06:31:01.706Z,52.28
2022-10-15T06:33:29.090Z,49.03
2022-10-15T06:36:00.227Z,52.70
2022-10-15T06:38:27.097Z,53.00
2022-10-15T06:40:53.794Z,52.08
2022-10-15T06:43:20.704Z,50.28
2022-10-15T06:45:47.395Z,51.97
2022-10-15T06:48:14.031Z,51.67
2022-10-15T06:50:41.128Z,52.25
2022-10-15T06:53:08.292Z,54.35
2022-10-15T06:55:35.495Z,54.20
2022-10-15T06:58:02.411Z,53.70
2022-10-15T07:00:29.613Z,53.00
2022-10-15T07:02:56.268Z,55.17
2022-10-15T07:05:22.965Z,54.30
2022-10-15T07:07:56.630Z,56.03
2022-10-15T07:10:24.848Z,53.55
2022-10-15T07:12:51.486Z,53.00
2022-10-15T07:15:19.175Z,53.72
2022-10-15T07:17:50.646Z,52.45
2022-10-15T07:20:21.714Z,55.75
2022-10-15T07:22:50.126Z,54.45
2022-10-15T07:25:18.066Z,51.97
2022-10-15T07:27:44.780Z,51.63
2022-10-15T07:30:11.467Z,53.38
2022-10-15T07:32:38.552Z,53.65
2022-10-15T07:35:05.745Z,53.83
2022-10-15T07:37:32.605Z,55.10
2022-10-15T07:39:59.553Z,54.92
2022-10-15T07:42:26.436Z,53.92
2022-10-15T07:44:53.192Z,55.17
2022-10-15T07:47:20.071Z,57.47
2022-10-15T07:49:46.781Z,57.78
2022-10-15T07:52:13.432Z,54.90
2022-10-15T07:54:40.217Z,54.60
2022-10-15T07:57:07.084Z,54.88
2022-10-15T07:59:34.342Z,57.83
2022-10-15T08:02:01.508Z,55.60
2022-10-15T08:04:28.288Z,56.83
2022-10-15T08:06:55.309Z,56.80
2022-10-15T08:09:22.543Z,55.53
2022-10-15T08:11:49.284Z,53.28
2022-10-15T08:14:15.999Z,57.28
2022-10-15T08:16:42.682Z,53.15
2022-10-15T08:19:09.401Z,52.95
2022-10-15T08:21:36.031Z,52.38
2022-10-15T08:24:02.719Z,53.17
2022-10-15T08:26:29.351Z,52.60
2022-10-15T08:28:56.036Z,52.20
2022-10-15T08:31:22.837Z,52.10
2022-10-15T08:33:50.504Z,54.33
2022-10-15T08:36:17.250Z,53.75
2022-10-15T08:38:43.935Z,52.00
2022-10-15T08:41:39.049Z,53.55
2022-10-15T08:44:13.595Z,52.10
2022-10-15T08:46:46.512Z,53.10
2022-10-15T08:49:48.876Z,55.95
2022-10-15T08:52:45.475Z,53.85
2022-10-15T08:55:14.360Z,54.22
2022-10-15T08:57:47.062Z,54.30
2022-10-15T09:00:23.683Z,57.22
2022-10-15T09:02:50.319Z,56.72
2022-10-15T09:05:32.138Z,56.45
2022-10-15T09:08:13.547Z,57.42
2022-10-15T09:10:50.303Z,56.45
2022-10-15T09:13:28.288Z,57.47
2022-10-15T09:16:01.144Z,60.58
2022-10-15T09:18:34.419Z,58.55
2022-10-15T09:21:04.370Z,58.75
2022-10-15T09:23:34.335Z,59.45
2022-10-15T09:26:28.524Z,59.15
2022-10-15T09:29:06.915Z,58.92
2022-10-15T09:31:44.512Z,59.13
2022-10-15T09:34:27.769Z,58.55
2022-10-15T09:37:00.681Z,58.28
2022-10-15T09:40:21.822Z,56.40
2022-10-15T09:42:51.251Z,58.40
2022-10-15T09:45:19.104Z,60.65
2022-10-15T09:47:46.611Z,59.05
2022-10-15T09:50:15.095Z,59.90
2022-10-15T09:52:44.583Z,60.65
2022-10-15T09:55:34.267Z,59.83
2022-10-15T09:58:06.814Z,56.53
2022-10-15T10:01:22.241Z,62.25
2022-10-15T10:04:19.020Z,60.00
2022-10-15T10:06:52.118Z,64.93
2022-10-15T10:09:48.750Z,65.57
2022-10-15T10:12:21.894Z,59.88
2022-10-15T10:15:16.823Z,60.53
2022-10-15T10:17:53.423Z,61.20
2022-10-15T10:20:22.707Z,59.10
2022-10-15T10:22:55.344Z,59.55
2022-10-15T10:25:42.477Z,58.30
2022-10-15T10:28:09.423Z,63.33
2022-10-15T10:30:39.695Z,61.45
2022-10-15T10:33:07.435Z,64.50
2022-10-15T10:35:46.539Z,57.58
2022-10-15T10:38:25.394Z,58.50
2022-10-15T10:40:55.713Z,57.17
2022-10-15T10:43:29.997Z,55.95
2022-10-15T10:46:21.891Z,57.17
2022-10-15T10:48:51.245Z,55.88
2022-10-15T10:51:21.328Z,56.78
2022-10-15T10:53:54.852Z,57.58
2022-10-15T10:56:37.085Z,63.13
2022-10-15T10:59:10.686Z,64.72
2022-10-15T11:01:37.560Z,62.50
2022-10-15T11:04:07.779Z,63.20
2022-10-15T11:06:51.071Z,63.58
2022-10-15T11:09:29.793Z,63.03
2022-10-15T11:12:28.393Z,63.30
2022-10-15T11:15:13.951Z,61.05
2022-10-15T11:17:46.533Z,65.93
2022-10-15T11:20:36.786Z,61.47
2022-10-15T11:23:27.522Z,55.25
2022-10-15T11:26:02.253Z,59.00
2022-10-15T11:28:47.592Z,59.88
2022-10-15T11:31:40.447Z,57.63
2022-10-15T11:34:41.229Z,43.88
2022-10-15T11:37:41.354Z,46.28
2022-10-15T11:40:21.664Z,49.05
2022-10-15T11:43:17.746Z,50.67
2022-10-15T11:46:08.132Z,52.15
2022-10-15T11:48:47.565Z,47.00
2022-10-15T11:51:52.363Z,41.75
2022-10-15T11:54:43.152Z,36.35
2022-10-15T11:57:15.318Z,37.95
2022-10-15T11:59:51.920Z,46.55
2022-10-15T12:02:27.029Z,42.53
2022-10-15T12:05:19.350Z,44.40
2022-10-15T12:07:51.192Z,43.85
2022-10-15T12:10:39.040Z,36.95
2022-10-15T12:13:19.741Z,33.28
2022-10-15T12:16:34.761Z,29.20
2022-10-15T12:19:22.020Z,27.85
2022-10-15T12:21:54.615Z,24.48
2022-10-15T12:24:44.656Z,30.52
2022-10-15T12:27:20.273Z,31.20
2022-10-15T12:29:53.149Z,27.70
2022-10-15T12:32:31.361Z,30.60
2022-10-15T12:35:02.858Z,29.33
2022-10-15T12:37:34.442Z,27.58
2022-10-15T12:40:22.891Z,28.13
2022-10-15T12:42:53.059Z,32.45
2022-10-15T12:45:37.300Z,30.92
2022-10-15T12:48:18.072Z,32.00
2022-10-15T12:50:44.824Z,29.65
2022-10-15T12:53:32.345Z,31.35
2022-10-15T12:56:23.723Z,33.72
2022-10-15T12:58:56.042Z,26.23
2022-10-15T13:01:22.727Z,29.30
2022-10-15T13:03:49.895Z,21.58
2022-10-15T13:06:23.064Z,31.00
2022-10-15T13:08:53.723Z,29.63
2022-10-15T13:11:37.795Z,29.10
2022-10-15T13:14:26.519Z,27.33
2022-10-15T13:16:53.599Z,15.63
2022-10-15T13:19:23.125Z,17.38
2022-10-15T13:22:02.594Z,15.95
2022-10-15T13:24:38.876Z,14.60
2022-10-15T13:27:32.667Z,16.95
2022-10-15T13:30:12.352Z,20.75
2022-10-15T13:32:48.100Z,22.48
2022-10-15T13:35:23.873Z,23.00
2022-10-15T13:37:50.810Z,23.55
2022-10-15T13:40:29.502Z,25.05
2022-10-15T13:43:06.869Z,21.70
2022-10-15T13:45:33.876Z,24.98
2022-10-15T13:48:00.781Z,25.38
2022-10-15T13:50:29.013Z,19.63
2022-10-15T13:53:15.981Z,16.55
2022-10-15T13:55:51.767Z,14.50
2022-10-15T13:58:35.976Z,12.20
2022-10-15T14:01:20.366Z,16.98
2022-10-15T14:03:50.804Z,24.00
2022-10-15T14:06:27.579Z,20.88
2022-10-15T14:08:59.965Z,26.33
2022-10-15T14:11:29.001Z,21.40
2022-10-15T14:13:57.927Z,19.13
2022-10-15T14:16:37.469Z,16.35
2022-10-15T14:19:07.533Z,17.92
2022-10-15T14:21:35.692Z,19.73
2022-10-15T14:24:10.450Z,17.90
2022-10-15T14:26:39.061Z,16.98
2022-10-15T14:29:07.123Z,17.60
2022-10-15T14:31:40.087Z,13.15
2022-10-15T14:34:31.655Z,13.20
2022-10-15T14:36:59.001Z,11.63
2022-10-15T14:39:36.570Z,13.43
2022-10-15T14:42:04.668Z,13.23
2022-10-15T14:44:46.578Z,14.65
2022-10-15T14:47:23.092Z,14.32
2022-10-15T14:50:00.373Z,15.52
2022-10-15T14:52:30.377Z,13.40
2022-10-15T14:55:11.777Z,13.85
2022-10-15T14:57:43.387Z,14.15
2022-10-15T15:00:31.604Z,16.48
2022-10-15T15:03:01.291Z,18.73
2022-10-15T15:05:29.100Z,19.95
2022-10-15T15:07:57.122Z,19.05
2022-10-15T15:10:27.482Z,19.33
2022-10-15T15:12:56.890Z,18.27
2022-10-15T15:15:25.850Z,18.15
2022-10-15T15:17:52.555Z,18.77
2022-10-15T15:20:20.701Z,16.85
2022-10-15T15:22:50.345Z,18.00
2022-10-15T15:25:21.967Z,17.70
2022-10-15T15:27:48.609Z,15.93
2022-10-15T15:30:20.716Z,15.50
2022-10-15T15:32:48.552Z,19.98
2022-10-15T15:35:50.591Z,20.02
2022-10-15T15:38:23.258Z,20.13
2022-10-15T15:40:50.362Z,19.52
2022-10-15T15:43:19.306Z,20.65
2022-10-15T15:45:47.177Z,19.63
2022-10-15T15:48:14.242Z,18.63
2022-10-15T15:50:41.192Z,18.48
2022-10-15T15:53:08.804Z,21.38
2022-10-15T15:55:35.530Z,19.73
2022-10-15T15:58:02.240Z,20.00
2022-10-15T16:00:29.255Z,22.35
2022-10-15T16:02:57.980Z,21.85
2022-10-15T16:05:25.282Z,21.88
2022-10-15T16:07:52.032Z,19.00
2022-10-15T16:10:18.904Z,18.85
2022-10-15T16:12:45.599Z,17.48
2022-10-15T16:15:14.668Z,17.10
2022-10-15T16:17:42.990Z,21.50
2022-10-15T16:20:10.532Z,21.80
2022-10-15T16:22:37.505Z,22.35
2022-10-15T16:25:04.592Z,20.85
2022-10-15T16:27:32.802Z,18.52
2022-10-15T16:29:59.468Z,20.17
2022-10-15T16:32:26.107Z,21.02
2022-10-15T16:34:53.084Z,18.98
2022-10-15T16:37:19.768Z,18.88
2022-10-15T16:39:46.480Z,19.42
2022-10-15T16:42:13.951Z,22.45
2022-10-15T16:44:40.762Z,21.92
2022-10-15T16:47:07.594Z,20.52
2022-10-15T16:49:34.281Z,22.33
2022-10-15T16:52:01.042Z,23.00
2022-10-15T16:54:27.687Z,22.48
2022-10-15T16:56:54.424Z,23.00
2022-10-15T16:59:21.475Z,22.35
2022-10-15T17:01:48.188Z,23.58
2022-10-15T17:04:14.888Z,24.73
2022-10-15T17:06:41.623Z,25.17
2022-10-15T17:09:08.322Z,25.33
2022-10-15T17:11:38.172Z,26.20
2022-10-15T17:14:08.221Z,26.02
2022-10-15T17:16:45.697Z,24.85
2022-10-15T17:19:13.655Z,26.10
2022-10-15T17:21:42.482Z,24.88
2022-10-15T17:24:12.992Z,25.33
2022-10-15T17:26:41.852Z,25.70
2022-10-15T17:29:10.876Z,24.80
2022-10-15T17:31:37.626Z,25.67
2022-10-15T17:34:07.271Z,26.88
2022-10-15T17:36:45.448Z,26.40
2022-10-15T17:39:17.929Z,27.58
2022-10-15T17:41:44.791Z,26.52
2022-10-15T17:44:12.062Z,27.00
2022-10-15T17:46:39.300Z,27.67
2022-10-15T17:49:06.193Z,27.92
2022-10-15T17:51:34.745Z,28.35
2022-10-15T17:54:01.553Z,28.73
2022-10-15T17:56:30.998Z,29.77
2022-10-15T17:58:59.181Z,29.27
2022-10-15T18:01:56.157Z,27.52
2022-10-15T18:04:18.734Z,26.98
2022-10-15T18:06:45.945Z,28.17
2022-10-15T18:09:13.263Z,29.00
2022-10-15T18:11:40.287Z,27.23
2022-10-15T18:14:07.041Z,28.10
2022-10-15T18:16:33.825Z,27.95
2022-10-15T18:19:00.569Z,27.02
2022-10-15T18:21:28.439Z,28.95
2022-10-15T18:23:58.435Z,29.13
2022-10-15T18:26:25.539Z,29.27
2022-10-15T18:28:53.663Z,28.83
2022-10-15T18:31:21.585Z,28.48
2022-10-15T18:33:54.780Z,29.10
2022-10-15T18:36:29.592Z,26.50
2022-10-15T18:38:56.717Z,27.75
2022-10-15T18:41:29.250Z,28.42
2022-10-15T18:43:57.129Z,28.10
2022-10-15T18:46:24.321Z,27.48
2022-10-15T18:48:51.370Z,28.30
2022-10-15T18:51:18.324Z,29.00
2022-10-15T18:53:45.297Z,29.42
2022-10-15T18:56:13.824Z,27.23
2022-10-15T18:58:44.736Z,28.45
2022-10-15T19:01:30.421Z,28.45
2022-10-15T19:03:59.487Z,27.77
2022-10-15T19:06:30.026Z,28.42
2022-10-15T19:09:01.147Z,27.45
2022-10-15T19:11:29.077Z,27.55
2022-10-15T19:14:00.417Z,28.20
2022-10-15T19:16:28.236Z,27.63
2022-10-15T19:18:55.007Z,29.90
2022-10-15T19:21:21.937Z,28.73
2022-10-15T19:23:48.941Z,31.02
2022-10-15T19:26:16.240Z,29.38
2022-10-15T19:28:43.796Z,29.77
2022-10-15T19:31:15.318Z,29.85
2022-10-15T19:33:43.375Z,30.42
2022-10-15T19:36:10.109Z,31.85
2022-10-15T19:38:36.831Z,32.35
2022-10-15T19:41:04.636Z,31.10
2022-10-15T19:43:31.375Z,29.48
2022-10-15T19:46:03.753Z,31.95
2022-10-15T19:48:30.845Z,28.73
2022-10-15T19:51:00.569Z,30.42
2022-10-15T19:53:27.388Z,31.08
2022-10-15T19:55:59.537Z,27.98
2022-10-15T19:58:26.737Z,28.40
2022-10-15T20:00:54.120Z,28.88
2022-10-15T20:03:22.030Z,29.98
2022-10-15T20:05:49.272Z,29.40
2022-10-15T20:08:17.044Z,28.73
2022-10-15T20:10:44.920Z,29.05
2022-10-15T20:13:12.760Z,30.75
2022-10-15T20:15:47.583Z,28.70
2022-10-15T20:18:15.495Z,28.45
2022-10-15T20:20:45.479Z,28.55
2022-10-15T20:23:14.657Z,29.95
2022-10-15T20:25:42.814Z,29.98
2022-10-15T20:28:10.984Z,30.33
2022-10-15T20:30:40.822Z,31.63
2022-10-15T20:33:08.168Z,32.05
2022-10-15T20:35:35.953Z,31.58
2022-10-15T20:38:03.660Z,33.17
2022-10-15T20:40:31.180Z,34.00
2022-10-15T20:42:58.101Z,33.83
2022-10-15T20:45:28.534Z,36.60
2022-10-15T20:47:55.311Z,34.47
2022-10-15T20:50:27.968Z,37.03
2022-10-15T20:52:56.744Z,38.47
2022-10-15T20:55:23.816Z,39.42
2022-10-15T20:57:51.059Z,41.20
2022-10-15T21:00:18.107Z,41.90
2022-10-15T21:02:44.776Z,40.97
2022-10-15T21:05:11.732Z,41.38
2022-10-15T21:07:38.751Z,43.40
2022-10-15T21:10:05.889Z,42.45
2022-10-15T21:12:32.590Z,43.35
2022-10-15T21:14:59.534Z,44.15
2022-10-15T21:17:26.447Z,43.65
2022-10-15T21:19:53.282Z,43.33
2022-10-15T21:22:20.401Z,43.90
2022-10-15T21:24:47.100Z,43.17
2022-10-15T21:27:13.842Z,40.63
2022-10-15T21:29:42.275Z,41.28
2022-10-15T21:32:09.425Z,38.42
2022-10-15T21:34:36.303Z,39.10
2022-10-15T21:37:03.150Z,41.78
2022-10-15T21:39:29.900Z,39.10
2022-10-15T21:41:56.710Z,39.95
2022-10-15T21:44:23.583Z,37.92
2022-10-15T21:46:50.262Z,40.58
2022-10-15T21:49:16.970Z,43.63
2022-10-15T21:51:44.271Z,45.50
2022-10-15T21:54:11.212Z,45.40
2022-10-15T21:56:38.529Z,45.95
2022-10-15T21:59:06.024Z,48.22
2022-10-15T22:01:35.506Z,48.50
2022-10-15T22:04:05.507Z,47.20
2022-10-15T22:06:33.162Z,46.47
2022-10-15T22:09:01.728Z,49.33
2022-10-15T22:11:31.084Z,50.28
2022-10-15T22:14:01.127Z,51.42
2022-10-15T22:16:28.646Z,51.38
2022-10-15T22:18:56.616Z,53.08
2022-10-15T22:21:24.696Z,52.45
2022-10-15T22:24:00.519Z,51.40
2022-10-15T22:26:31.160Z,51.15
2022-10-15T22:28:59.767Z,53.75
2022-10-15T22:31:27.141Z,54.17
2022-10-15T22:33:54.444Z,53.58
2022-10-15T22:36:24.192Z,56.10
2022-10-15T22:39:01.744Z,56.03
2022-10-15T22:41:30.615Z,54.10
2022-10-15T22:43:57.570Z,55.03
2022-10-15T22:46:25.106Z,54.70
2022-10-15T22:48:53.543Z,56.00
2022-10-15T22:51:21.130Z,55.92
2022-10-15T22:53:48.277Z,53.50
2022-10-15T22:56:18.197Z,54.92
2022-10-15T22:58:45.343Z,56.08
2022-10-15T23:01:15.287Z,52.95
2022-10-15T23:03:47.093Z,54.10
2022-10-15T23:06:14.500Z,53.90
2022-10-15T23:08:41.790Z,55.08
2022-10-15T23:11:17.433Z,53.85
2022-10-15T23:13:45.940Z,51.40
2022-10-15T23:16:22.277Z,54.80
2022-10-15T23:18:54.771Z,50.30
2022-10-15T23:21:37.785Z,50.17
2022-10-15T23:24:05.375Z,49.78
2022-10-15T23:26:32.487Z,48.40
2022-10-15T23:29:00.951Z,50.28
2022-10-15T23:31:33.141Z,49.63
2022-10-15T23:34:00.586Z,50.22
2022-10-15T23:36:29.303Z,49.70
2022-10-15T23:38:59.114Z,47.42
2022-10-15T23:41:27.409Z,49.30
2022-10-15T23:43:54.351Z,49.22
2022-10-15T23:46:21.416Z,48.55
2022-10-15T23:48:48.313Z,49.08
2022-10-15T23:51:36.973Z,46.95
2022-10-15T23:54:10.032Z,46.83
2022-10-15T23:56:36.696Z,46.13
2022-10-15T23:59:03.437Z,47.67
